Time;durP1;ratioP1;P1;durP2;ratioP2;P2;SDS_P1;SDS_P2;PMS_P1;PMS_P2;Temp;Humidity;BMP_temperature;BMP_pressure;BME280_temperature;BME280_humidity;BME280_pressure;Samples;Min_cycle;Max_cycle;Signal;HPM_P1;HPM_P2
2022/08/24 00:01:08;;;;;;;3.70;1.77;;;;;;;20.11;84.90;101836.41;5107323;28;20106;-79
2022/08/24 00:03:35;;;;;;;3.42;2.20;;;;;;;20.22;85.08;101841.16;5102177;28;20417;-79
2022/08/24 00:06:01;;;;;;;1.98;1.77;;;;;;;20.20;85.00;101843.34;5092183;28;20114;-79
2022/08/24 00:08:30;;;;;;;3.92;2.00;;;;;;;20.26;83.97;101842.41;5087410;28;20028;-79
2022/08/24 00:10:56;;;;;;;2.35;1.50;;;;;;;20.27;84.98;101840.47;5095529;28;20036;-79
2022/08/24 00:13:22;;;;;;;2.50;1.67;;;;;;;20.31;84.46;101841.69;5072408;28;20044;-79
2022/08/24 00:15:47;;;;;;;2.13;1.53;;;;;;;20.27;83.84;101844.09;5075454;28;20043;-80
2022/08/24 00:18:13;;;;;;;2.07;1.90;;;;;;;20.29;83.98;101839.16;5112672;28;20036;-79
2022/08/24 00:20:40;;;;;;;3.47;2.33;;;;;;;20.30;84.36;101848.34;5093967;28;20036;-80
2022/08/24 00:23:06;;;;;;;3.20;1.95;;;;;;;20.30;84.89;101851.13;5111136;28;20077;-79
2022/08/24 00:25:32;;;;;;;2.03;1.77;;;;;;;20.26;83.98;101847.09;5092942;28;20062;-78
2022/08/24 00:28:00;;;;;;;;;;;;;;;20.16;83.75;101847.69;5108984;28;20679;-79
2022/08/24 00:30:25;;;;;;;4.32;1.75;;;;;;;20.12;84.53;101842.84;5112075;28;19912;-80
2022/08/24 00:32:53;;;;;;;1.93;1.50;;;;;;;20.03;84.54;101856.19;5110504;28;20038;-79
2022/08/24 00:35:21;;;;;;;2.45;2.08;;;;;;;19.98;84.46;101853.25;5077442;28;20043;-80
2022/08/24 00:37:49;;;;;;;6.03;1.85;;;;;;;19.90;85.46;101844.38;5127071;28;20027;-79
2022/08/24 00:40:23;;;;;;;3.40;2.00;;;;;;;19.80;86.29;101844.91;5094498;28;20074;-79
2022/08/24 00:42:49;;;;;;;3.25;1.85;;;;;;;19.77;87.21;101844.53;5090508;28;20111;-80
2022/08/24 00:45:16;;;;;;;2.22;1.88;;;;;;;19.69;85.53;101842.09;5112122;28;20546;-80
2022/08/24 00:47:51;;;;;;;2.30;2.10;;;;;;;19.66;86.00;101848.97;5094422;28;20055;-79
2022/08/24 00:50:31;;;;;;;2.30;2.10;;;;;;;19.65;85.49;101840.84;5094698;28;20111;-80
2022/08/24 00:53:01;;;;;;;2.60;2.20;;;;;;;19.59;85.51;101844.56;5094539;28;20483;-79
2022/08/24 00:55:41;;;;;;;5.57;1.98;;;;;;;19.58;87.30;101838.13;5087834;28;20122;-79
2022/08/24 00:58:13;;;;;;;3.50;2.08;;;;;;;19.51;86.78;101844.84;5098731;28;20493;-80
2022/08/24 01:00:43;;;;;;;6.18;2.30;;;;;;;19.49;85.91;101836.78;5075292;28;20050;-80
2022/08/24 01:03:09;;;;;;;2.88;2.60;;;;;;;19.48;87.44;101842.56;5095053;28;20131;-79
2022/08/24 01:05:36;;;;;;;6.80;3.10;;;;;;;19.43;86.54;101837.66;5097474;28;20039;-80
2022/08/24 01:08:05;;;;;;;2.75;2.53;;;;;;;19.43;86.92;101834.06;5113081;28;20050;-78
2022/08/24 01:10:36;;;;;;;3.13;2.80;;;;;;;19.36;87.36;101834.13;5071124;28;20047;-80
2022/08/24 01:13:05;;;;;;;6.05;3.45;;;;;;;19.34;86.75;101827.09;5112672;28;20081;-80
2022/08/24 01:15:37;;;;;;;6.57;4.07;;;;;;;19.39;87.57;101827.25;5093873;28;20038;-80
2022/08/24 01:21:25;;;;;;;5.25;4.40;;;;;;;19.40;89.03;101826.16;5099707;28;20427;-80
2022/08/24 01:23:56;;;;;;;5.60;4.55;;;;;;;19.40;87.28;101824.25;5066679;28;20035;-79
2022/08/24 01:26:45;;;;;;;9.10;5.57;;;;;;;19.36;88.76;101819.41;5111674;28;20045;-80
2022/08/24 01:29:17;;;;;;;6.72;5.00;;;;;;;19.31;87.73;101820.06;5110628;28;20107;-79
2022/08/24 01:31:44;;;;;;;5.90;4.88;;;;;;;19.31;88.90;101822.03;5111530;28;20024;-80
2022/08/24 01:34:11;;;;;;;6.28;5.13;;;;;;;19.31;89.13;101824.81;5112684;28;20102;-81
2022/08/24 01:36:46;;;;;;;5.78;5.18;;;;;;;19.28;89.60;101819.69;5093187;28;20027;-79
2022/08/24 01:39:25;;;;;;;13.57;5.43;;;;;;;19.21;89.47;101818.88;5110552;28;20058;-80
2022/08/24 01:41:51;;;;;;;6.70;5.10;;;;;;;19.20;88.34;101831.09;5100883;28;20106;-80
2022/08/24 01:44:17;;;;;;;5.67;4.67;;;;;;;19.16;88.55;101833.44;5108957;28;20127;-80
2022/08/24 01:46:44;;;;;;;6.88;5.25;;;;;;;19.16;89.12;101821.50;5111444;28;20027;-80
2022/08/24 01:49:10;;;;;;;16.52;5.13;;;;;;;19.13;88.67;101830.28;5065262;28;20031;-80
2022/08/24 01:51:36;;;;;;;13.85;4.82;;;;;;;19.08;87.33;101836.53;5093662;28;20046;-81
2022/08/24 01:54:02;;;;;;;6.67;6.07;;;;;;;19.06;88.30;101832.28;5107815;28;20023;-80
2022/08/24 01:56:28;;;;;;;7.25;5.78;;;;;;;19.03;88.51;101835.50;5092888;28;20019;-80
2022/08/24 01:58:53;;;;;;;7.97;5.03;;;;;;;19.02;88.53;101843.00;5093025;28;20040;-80
2022/08/24 02:01:19;;;;;;;8.93;6.67;;;;;;;19.04;90.39;101853.91;5093074;28;20483;-80
2022/08/24 02:03:45;;;;;;;10.00;5.88;;;;;;;19.03;89.62;101849.38;5110949;28;20421;-79
2022/08/24 02:06:10;;;;;;;7.63;6.10;;;;;;;19.02;90.02;101845.78;5112113;28;20047;-79
2022/08/24 02:08:36;;;;;;;9.60;5.50;;;;;;;19.00;90.09;101847.09;5110972;28;20106;-80
2022/08/24 02:11:07;;;;;;;9.23;6.37;;;;;;;18.98;89.89;101849.22;5100559;28;20047;-80
2022/08/24 02:13:34;;;;;;;11.23;6.38;;;;;;;18.93;88.76;101844.38;5076409;28;20067;-79
2022/08/24 02:15:59;;;;;;;8.80;6.15;;;;;;;18.91;88.57;101845.66;5093385;28;20367;-81
2022/08/24 02:18:26;;;;;;;7.07;5.17;;;;;;;18.90;89.51;101841.19;5111341;28;20175;-80
2022/08/24 02:20:52;;;;;;;;;;;;;;;18.87;88.75;101842.50;5083805;28;20019;-80
2022/08/24 02:23:18;;;;;;;8.10;5.80;;;;;;;18.86;88.45;101839.94;5105639;28;20386;-80
2022/08/24 02:25:43;;;;;;;7.78;5.40;;;;;;;18.88;90.13;101837.81;5090864;28;20108;-80
2022/08/24 02:28:09;;;;;;;7.03;5.50;;;;;;;18.84;90.00;101833.78;5111411;28;20110;-80
2022/08/24 02:30:34;;;;;;;8.90;6.00;;;;;;;18.86;89.72;101834.38;5084168;28;20372;-80
2022/08/24 02:33:00;;;;;;;8.10;6.32;;;;;;;18.88;90.17;101840.59;5112211;28;20092;-80
2022/08/24 02:35:28;;;;;;;12.87;6.37;;;;;;;18.86;88.92;101840.81;5104796;28;20031;-79
2022/08/24 02:37:53;;;;;;;7.43;6.07;;;;;;;18.83;90.38;101846.81;5112072;28;20027;-80
2022/08/24 02:40:20;;;;;;;7.30;6.17;;;;;;;18.77;89.32;101844.94;5091786;28;20386;-81
2022/08/24 02:42:46;;;;;;;8.43;6.43;;;;;;;18.75;89.13;101847.09;5076553;28;20057;-80
2022/08/24 02:45:15;;;;;;;10.40;6.68;;;;;;;18.73;89.12;101840.91;5092615;28;20060;-80
2022/08/24 02:47:40;;;;;;;9.52;6.55;;;;;;;18.71;89.90;101847.75;5087887;28;20535;-80
2022/08/24 02:50:09;;;;;;;8.33;6.53;;;;;;;18.72;90.79;101843.94;5093015;28;20031;-80
2022/08/24 02:52:39;;;;;;;9.68;7.05;;;;;;;18.68;90.32;101843.50;5076049;28;20047;-80
2022/08/24 02:55:06;;;;;;;9.68;6.85;;;;;;;18.64;89.91;101842.28;5093442;28;20542;-80
2022/08/24 02:57:31;;;;;;;12.27;7.80;;;;;;;18.64;90.06;101846.97;5107134;28;20055;-79
2022/08/24 02:59:58;;;;;;;18.27;7.03;;;;;;;18.63;90.84;101851.66;5097625;28;20063;-80
2022/08/24 03:02:24;;;;;;;9.43;6.90;;;;;;;18.63;90.39;101856.38;5087305;28;20034;-80
2022/08/24 03:04:49;;;;;;;8.30;5.83;;;;;;;18.61;90.31;101864.91;5066588;28;20421;-80
2022/08/24 03:07:14;;;;;;;8.53;6.30;;;;;;;18.60;91.20;101874.34;5088763;28;20035;-80
2022/08/24 03:09:41;;;;;;;7.57;6.60;;;;;;;18.59;90.39;101864.31;5110732;28;20032;-80
2022/08/24 03:12:07;;;;;;;;;;;;;;;18.57;90.80;101862.84;5111515;28;20032;-77
2022/08/24 03:14:34;;;;;;;8.80;6.15;;;;;;;18.56;90.31;101853.63;5110061;28;20373;-78
2022/08/24 03:17:00;;;;;;;7.47;5.65;;;;;;;18.56;90.33;101856.41;5107968;28;20023;-79
2022/08/24 03:19:25;;;;;;;8.03;6.27;;;;;;;18.54;89.87;101857.72;5109737;28;20538;-79
2022/08/24 03:21:52;;;;;;;10.73;6.50;;;;;;;18.50;91.39;101853.69;5080585;28;20028;-80
2022/08/24 03:24:17;;;;;;;9.20;6.38;;;;;;;18.57;92.08;101860.06;5101198;28;20064;-79
2022/08/24 03:26:43;;;;;;;10.17;6.40;;;;;;;18.53;91.13;101856.88;5109763;28;20661;-79
2022/08/24 03:29:08;;;;;;;11.30;5.77;;;;;;;18.48;89.46;101858.63;5104455;28;20514;-79
2022/08/24 03:31:33;;;;;;;10.23;5.87;;;;;;;18.47;90.41;101856.91;5082023;28;20016;-79
2022/08/24 03:34:00;;;;;;;7.47;5.93;;;;;;;18.48;90.71;101853.06;5091748;28;20114;-79
2022/08/24 03:36:26;;;;;;;8.02;6.63;;;;;;;18.46;90.87;101856.06;5101332;28;20035;-80
2022/08/24 03:38:52;;;;;;;9.33;6.30;;;;;;;18.45;91.39;101859.91;5108479;28;20043;-79
2022/08/24 03:41:17;;;;;;;;;;;;;;;18.43;90.07;101861.22;5118414;28;20063;-78
2022/08/24 03:43:47;;;;;;;11.35;5.72;;;;;;;18.37;91.52;101853.78;5095704;28;20430;-80
2022/08/24 03:46:17;;;;;;;7.22;5.80;;;;;;;18.34;90.28;101848.66;5097918;28;20019;-79
2022/08/24 03:48:43;;;;;;;10.80;6.28;;;;;;;18.35;92.01;101854.00;5110671;28;20032;-79
2022/08/24 03:51:17;;;;;;;9.97;6.13;;;;;;;18.29;91.48;101849.31;5079504;28;20031;-79
2022/08/24 03:53:44;;;;;;;8.00;5.85;;;;;;;18.28;91.32;101853.19;5113936;28;20042;-80
2022/08/24 03:56:15;;;;;;;7.75;5.88;;;;;;;18.32;92.01;101853.59;5089068;28;20024;-79
2022/08/24 03:58:40;;;;;;;10.60;6.60;;;;;;;18.36;92.10;101857.63;5078600;28;20176;-79
2022/08/24 04:01:07;;;;;;;8.70;6.30;;;;;;;18.31;90.88;101854.66;5096274;28;20059;-78
2022/08/24 04:03:39;;;;;;;8.20;6.28;;;;;;;18.27;91.12;101850.63;5094574;28;20031;-79
2022/08/24 04:06:06;;;;;;;8.70;6.47;;;;;;;18.26;91.44;101860.00;5094166;28;20068;-79
2022/08/24 04:08:32;;;;;;;11.00;7.15;;;;;;;18.23;91.58;101854.91;5077806;28;20028;-79
2022/08/24 04:10:58;;;;;;;7.45;6.43;;;;;;;18.22;91.16;101853.22;5091552;28;20035;-79
2022/08/24 04:13:24;;;;;;;11.15;7.07;;;;;;;18.24;91.65;101854.69;5093465;28;20039;-79
2022/08/24 04:15:51;;;;;;;8.68;6.68;;;;;;;18.22;90.88;101854.06;5112231;28;20474;-79
2022/08/24 04:18:18;;;;;;;10.70;7.90;;;;;;;18.25;91.71;101856.38;5090350;28;20127;-80
2022/08/24 04:20:44;;;;;;;10.35;7.53;;;;;;;18.22;91.56;101848.53;5124649;28;20391;-80
2022/08/24 04:23:14;;;;;;;10.60;8.13;;;;;;;18.15;90.34;101856.00;5113655;28;20025;-80
2022/08/24 04:25:46;;;;;;;12.63;7.63;;;;;;;18.17;91.96;101850.25;5088423;28;20110;-80
2022/08/24 04:28:17;;;;;;;11.60;7.80;;;;;;;18.17;92.35;101855.78;5112391;28;20032;-80
2022/08/24 04:30:49;;;;;;;16.30;9.30;;;;;;;18.21;92.99;101865.38;5093562;28;20028;-79
2022/08/24 04:33:16;;;;;;;12.48;8.10;;;;;;;18.16;92.25;101866.06;5113409;28;20162;-81
2022/08/24 04:35:44;;;;;;;14.07;8.57;;;;;;;18.19;91.63;101859.22;5091009;28;20020;-79
2022/08/24 04:38:12;;;;;;;17.80;9.10;;;;;;;18.23;92.64;101853.00;5085213;28;20027;-80
2022/08/24 04:40:40;;;;;;;19.08;9.52;;;;;;;18.22;92.22;101859.63;5091273;28;20032;-80
2022/08/24 04:43:05;;;;;;;16.08;9.32;;;;;;;18.20;91.64;101856.19;5059103;28;20032;-80
2022/08/24 04:45:32;;;;;;;12.60;9.73;;;;;;;18.19;91.90;101865.59;5105061;28;20482;-78
2022/08/24 04:47:59;;;;;;;14.52;9.80;;;;;;;18.16;92.26;101871.59;5088382;28;20032;-80
2022/08/24 04:50:24;;;;;;;15.53;9.70;;;;;;;18.18;92.14;101866.66;5093251;28;20043;-78
2022/08/24 04:52:50;;;;;;;12.90;9.13;;;;;;;18.15;92.36;101857.94;5096514;28;20119;-78
2022/08/24 04:55:17;;;;;;;12.85;9.00;;;;;;;18.08;91.49;101860.75;5086767;28;20023;-77
2022/08/24 04:57:43;;;;;;;14.88;10.10;;;;;;;18.14;92.82;101864.56;5112891;28;20449;-82
2022/08/24 05:00:10;;;;;;;21.40;11.20;;;;;;;18.18;92.27;101861.13;5111833;28;20030;-82
2022/08/24 05:02:40;;;;;;;15.18;10.40;;;;;;;18.19;91.59;101867.53;5113297;28;20028;-83
2022/08/24 05:05:07;;;;;;;16.48;11.00;;;;;;;18.18;92.08;101857.50;5079945;28;20502;-84
2022/08/24 05:07:33;;;;;;;18.90;12.00;;;;;;;18.19;92.35;101865.59;5109222;28;20065;-84
2022/08/24 05:09:58;;;;;;;20.10;11.53;;;;;;;18.25;92.84;101869.41;5115262;28;20035;-81
2022/08/24 05:12:24;;;;;;;21.40;12.97;;;;;;;18.26;92.05;101873.88;5128683;28;20050;-81
2022/08/24 05:14:49;;;;;;;15.57;11.67;;;;;;;18.24;91.48;101870.50;5093691;28;20023;-81
2022/08/24 05:17:15;;;;;;;19.87;12.97;;;;;;;18.27;92.83;101873.66;5110431;28;20039;-81
2022/08/24 05:19:40;;;;;;;17.33;11.37;;;;;;;18.34;92.05;101876.41;5106281;28;20483;-81
2022/08/24 05:22:06;;;;;;;14.97;11.00;;;;;;;18.36;91.18;101875.13;5112102;28;20032;-82
2022/08/24 05:24:31;;;;;;;13.95;11.25;;;;;;;18.36;91.96;101875.13;5109086;28;20027;-81
2022/08/24 05:26:59;;;;;;;16.93;12.10;;;;;;;18.45;92.29;101872.94;5093419;28;20038;-82
2022/08/24 05:29:25;;;;;;;22.95;12.32;;;;;;;18.50;91.71;101879.53;5092086;28;20032;-81
2022/08/24 05:31:50;;;;;;;19.83;13.40;;;;;;;18.58;92.65;101876.47;5095487;28;20036;-85
2022/08/24 05:34:17;;;;;;;22.60;13.20;;;;;;;18.56;92.91;101878.63;5092992;28;20038;-83
2022/08/24 05:36:45;;;;;;;;;;;;;;;18.63;90.42;101890.53;5103539;28;20028;-83
2022/08/24 05:39:13;;;;;;;21.23;12.57;;;;;;;18.67;91.80;101886.22;5087154;28;19926;-84
2022/08/24 05:41:47;;;;;;;18.55;13.07;;;;;;;18.71;91.41;101881.06;5094101;28;20028;-85
2022/08/24 05:44:15;;;;;;;15.60;11.38;;;;;;;18.72;89.94;101885.56;5094783;28;20032;-85
2022/08/24 05:46:41;;;;;;;16.42;11.65;;;;;;;18.82;91.02;101885.88;5114102;28;20400;-86
2022/08/24 05:49:08;;;;;;;21.80;13.38;;;;;;;18.90;90.87;101885.63;5096779;28;20142;-82
2022/08/24 05:51:34;;;;;;;19.67;12.65;;;;;;;18.92;90.25;101891.78;5108593;28;20070;-84
2022/08/24 05:53:59;;;;;;;20.03;10.83;;;;;;;18.96;89.69;101885.59;5113744;28;20445;-85
2022/08/24 05:56:25;;;;;;;18.40;13.70;;;;;;;19.08;90.79;101894.00;5113956;28;20279;-88
2022/08/24 05:58:50;;;;;;;20.27;12.82;;;;;;;19.13;91.04;101897.81;5093471;28;20031;-86
2022/08/24 06:01:19;;;;;;;19.80;13.97;;;;;;;19.24;91.53;101887.91;5107405;28;20092;-86
2022/08/24 06:03:45;;;;;;;20.60;14.70;;;;;;;19.27;91.44;101887.47;5090191;28;20039;-84
2022/08/24 06:06:12;;;;;;;18.38;12.88;;;;;;;19.34;90.97;101883.53;5109119;28;20027;-83
2022/08/24 06:08:38;;;;;;;;;;;;;;;19.45;90.14;101887.47;5091920;28;20035;-83
2022/08/24 06:11:04;;;;;;;19.50;13.00;;;;;;;19.47;89.74;101899.22;5095745;28;20365;-84
2022/08/24 06:13:30;;;;;;;18.17;13.95;;;;;;;19.51;90.58;101886.56;5099369;28;20108;-83
2022/08/24 06:16:22;;;;;;;19.52;14.70;;;;;;;19.59;90.47;101895.44;5090285;28;20051;-84
2022/08/24 06:18:49;;;;;;;23.23;16.17;;;;;;;19.71;90.91;101893.59;5082611;28;20058;-84
2022/08/24 06:21:17;;;;;;;27.52;17.48;;;;;;;19.90;91.20;101900.03;5090939;28;20168;-83
2022/08/24 06:23:44;;;;;;;27.08;16.90;;;;;;;19.98;90.03;101896.91;5104689;28;20084;-86
2022/08/24 06:28:55;;;;;;;27.60;15.00;;;;;;;20.32;88.84;101902.69;5103192;28;22713;-86
2022/08/24 06:31:21;;;;;;;24.33;15.07;;;;;;;20.46;88.52;101900.56;5089647;28;20024;-82
2022/08/24 06:33:46;;;;;;;22.33;14.77;;;;;;;20.53;87.62;101904.94;5114263;28;20275;-86
2022/08/24 06:36:13;;;;;;;18.37;12.97;;;;;;;20.62;87.09;101908.25;5089462;28;20031;-86
2022/08/24 06:38:38;;;;;;;20.90;12.50;;;;;;;20.75;86.09;101910.84;5091593;28;20626;-83
2022/08/24 06:41:04;;;;;;;25.70;11.60;;;;;;;20.91;85.05;101918.53;5109078;28;20110;-87
2022/08/24 06:43:29;;;;;;;15.60;10.77;;;;;;;21.21;83.39;101922.09;5104556;28;20031;-87
2022/08/24 06:45:56;;;;;;;20.37;11.57;;;;;;;21.30;82.94;101929.03;5093833;28;20036;-88
2022/08/24 06:48:22;;;;;;;;;;;;;;;21.43;82.65;101914.81;5092612;28;20561;-87
2022/08/24 06:50:48;;;;;;;13.48;9.07;;;;;;;21.54;82.25;101920.41;5108453;28;19915;-83
2022/08/24 06:53:14;;;;;;;17.77;10.20;;;;;;;21.58;81.68;101913.25;5106432;28;20032;-85
2022/08/24 06:55:58;;;;;;;17.73;10.38;;;;;;;22.00;80.76;101908.38;5085290;28;20073;-89
2022/08/24 06:58:25;;;;;;;13.00;9.32;;;;;;;23.02;76.87;101910.97;5086074;28;20027;-79
2022/08/24 07:00:51;;;;;;;13.95;9.57;;;;;;;24.07;73.02;101909.88;5098710;28;20040;-78
2022/08/24 07:03:17;;;;;;;14.90;8.90;;;;;;;24.00;71.24;101909.22;5104045;28;20360;-78
2022/08/24 07:05:51;;;;;;;18.02;8.80;;;;;;;23.74;72.40;101913.56;5083729;28;20032;-79
2022/08/24 07:08:17;;;;;;;18.35;8.35;;;;;;;24.25;70.34;101915.97;5102399;28;20106;-80
2022/08/24 07:10:42;;;;;;;18.48;8.38;;;;;;;24.42;70.99;101910.28;5099741;28;20623;-79
2022/08/24 07:13:10;;;;;;;13.77;7.83;;;;;;;25.09;69.11;101920.00;5088393;28;20050;-79
2022/08/24 07:15:35;;;;;;;13.95;8.13;;;;;;;25.56;66.70;101926.59;5087014;28;20482;-80
2022/08/24 07:18:01;;;;;;;16.23;8.13;;;;;;;25.89;65.00;101915.88;5088682;28;20054;-79
2022/08/24 07:20:29;;;;;;;18.60;6.93;;;;;;;26.10;65.11;101916.84;5089919;28;20050;-80
2022/08/24 07:22:54;;;;;;;13.18;7.43;;;;;;;26.12;64.22;101914.59;5106806;28;20497;-80
2022/08/24 07:25:19;;;;;;;13.37;7.00;;;;;;;26.15;64.36;101925.28;5103721;28;20024;-81
2022/08/24 07:27:45;;;;;;;13.13;7.67;;;;;;;26.46;61.92;101925.13;5082262;28;20035;-80
2022/08/24 07:30:11;;;;;;;11.82;7.65;;;;;;;26.61;61.17;101933.63;5103214;28;20517;-80
2022/08/24 07:32:36;;;;;;;17.98;8.93;;;;;;;26.52;61.14;101926.81;5082362;28;20386;-80
2022/08/24 07:35:02;;;;;;;12.90;8.13;;;;;;;26.54;61.18;101923.75;5088397;28;20032;-79
2022/08/24 07:37:27;;;;;;;14.15;8.50;;;;;;;26.46;60.81;101933.56;5087488;28;20742;-79
2022/08/24 07:39:53;;;;;;;15.40;8.07;;;;;;;26.26;63.56;101921.41;5082235;28;20035;-80
2022/08/24 07:42:18;;;;;;;12.27;7.63;;;;;;;26.23;63.00;101927.56;5087676;28;20072;-80
2022/08/24 07:44:44;;;;;;;16.77;7.60;;;;;;;26.23;63.98;101934.03;5087508;28;20363;-79
2022/08/24 07:47:09;;;;;;;11.73;7.47;;;;;;;26.15;63.90;101936.53;5107958;28;20023;-80
2022/08/24 07:49:34;;;;;;;19.87;8.00;;;;;;;26.21;63.22;101933.47;5107939;28;20595;-78
2022/08/24 07:52:00;;;;;;;11.90;7.83;;;;;;;26.10;64.78;101940.13;5107469;28;20076;-79
2022/08/24 07:54:29;;;;;;;8.85;7.15;;;;;;;26.05;63.77;101922.44;5085183;28;20020;-79
2022/08/24 07:56:54;;;;;;;12.38;7.50;;;;;;;25.78;66.03;101941.34;5087109;28;20045;-80
2022/08/24 07:59:20;;;;;;;12.63;7.60;;;;;;;25.96;64.69;101938.09;5089275;28;20027;-80
2022/08/24 08:01:45;;;;;;;11.25;7.70;;;;;;;25.80;64.97;101939.94;5104939;28;20030;-80
2022/08/24 08:04:12;;;;;;;21.17;7.27;;;;;;;26.09;65.25;101940.44;5109905;28;20184;-80
2022/08/24 08:06:40;;;;;;;10.88;6.68;;;;;;;25.98;65.03;101935.88;5108168;28;20046;-80
2022/08/24 08:09:05;;;;;;;13.77;8.45;;;;;;;25.82;65.26;101948.94;5086896;28;20027;-78
2022/08/24 08:11:31;;;;;;;12.77;8.30;;;;;;;25.81;64.76;101940.78;5106353;28;20039;-79
2022/08/24 08:13:57;;;;;;;11.20;7.78;;;;;;;25.99;66.02;101943.19;5107303;28;20115;-79
2022/08/24 08:16:22;;;;;;;10.88;7.40;;;;;;;25.81;66.10;101947.25;5105062;28;20122;-80
2022/08/24 08:18:47;;;;;;;13.43;7.40;;;;;;;25.71;65.96;101949.16;5106458;28;20555;-80
2022/08/24 08:24:15;;;;;;;10.93;6.78;;;;;;;25.69;65.76;101957.00;5104634;28;20118;-78
2022/08/24 08:26:42;;;;;;;18.05;7.40;;;;;;;25.87;64.74;101950.94;5083012;28;20462;-77
2022/08/24 08:29:09;;;;;;;13.60;6.68;;;;;;;25.87;65.68;101957.41;5085501;28;20032;-78
2022/08/24 08:31:36;;;;;;;14.13;7.30;;;;;;;25.87;64.97;101967.81;5090759;28;20020;-77
2022/08/24 08:34:02;;;;;;;13.23;7.28;;;;;;;25.82;64.11;101967.75;5103805;28;20051;-77
2022/08/24 08:36:28;;;;;;;10.57;6.88;;;;;;;25.83;64.68;101966.66;5109257;28;20038;-79
2022/08/24 08:38:54;;;;;;;14.32;5.68;;;;;;;26.00;63.98;101967.34;5103671;28;20039;-78
2022/08/24 08:41:34;;;;;;;14.15;5.60;;;;;;;26.04;63.94;101962.88;5082522;28;20035;-80
2022/08/24 08:44:15;;;;;;;11.45;5.03;;;;;;;26.13;63.92;101966.84;5082278;28;20031;-80
2022/08/24 08:47:04;;;;;;;9.18;4.80;;;;;;;26.42;63.18;101973.75;5088761;28;20398;-80
2022/08/24 08:49:36;;;;;;;12.88;6.10;;;;;;;26.56;60.64;101969.34;5088093;28;20037;-79
2022/08/24 08:52:35;;;;;;;8.60;4.97;;;;;;;26.49;62.06;101968.69;5110092;28;20027;-79
2022/08/24 08:55:25;;;;;;;18.25;5.90;;;;;;;26.57;61.30;101971.03;5070691;28;20047;-79
2022/08/24 08:58:16;;;;;;;7.55;5.25;;;;;;;26.67;61.48;101974.72;5083431;28;20442;-77
2022/08/24 09:01:02;;;;;;;9.90;4.65;;;;;;;26.82;60.34;101968.28;5091520;28;20431;-78
2022/08/24 09:03:39;;;;;;;8.18;4.55;;;;;;;27.12;59.73;101965.53;5104969;28;20486;-79
2022/08/24 09:06:11;;;;;;;6.95;4.82;;;;;;;27.11;60.38;101969.47;5110145;28;20042;-79
2022/08/24 09:09:07;;;;;;;9.15;4.20;;;;;;;27.32;59.46;101977.69;5088260;28;20394;-78
2022/08/24 09:12:03;;;;;;;8.40;4.80;;;;;;;27.45;58.09;101971.50;5088340;28;20328;-78
2022/08/24 09:14:56;;;;;;;12.50;4.72;;;;;;;27.30;58.84;101970.63;5087384;28;20459;-79
2022/08/24 09:17:35;;;;;;;6.68;4.80;;;;;;;27.21;59.18;101975.16;5104990;28;20032;-79
2022/08/24 09:20:23;;;;;;;7.65;4.22;;;;;;;27.17;59.80;101976.81;5090687;28;20031;-79
2022/08/24 09:23:08;;;;;;;8.63;4.45;;;;;;;27.64;58.01;101974.59;5104700;28;20351;-78
2022/08/24 09:25:39;;;;;;;7.00;4.10;;;;;;;27.67;57.57;101976.81;5105880;28;20457;-79
2022/08/24 09:28:11;;;;;;;7.47;4.13;;;;;;;27.97;58.02;101980.50;5089638;28;20119;-79
2022/08/24 09:31:03;;;;;;;10.00;5.45;;;;;;;28.04;56.58;101981.03;5101693;28;20040;-80
2022/08/24 09:33:51;;;;;;;9.02;5.03;;;;;;;27.98;56.93;101984.13;5081660;28;20660;-77
2022/08/24 09:36:30;;;;;;;7.32;5.30;;;;;;;27.89;57.58;101981.06;5086704;28;20027;-78
2022/08/24 09:39:00;;;;;;;6.88;4.22;;;;;;;27.97;58.07;101980.50;5102956;28;20031;-77
2022/08/24 09:41:47;;;;;;;6.78;4.70;;;;;;;28.12;56.90;101974.81;5086693;28;20066;-78
2022/08/24 09:44:28;;;;;;;10.52;4.38;;;;;;;28.08;57.91;101981.31;5067487;28;20123;-75
2022/08/24 09:47:05;;;;;;;9.65;4.50;;;;;;;28.23;57.83;101976.44;5083078;28;20024;-76
2022/08/24 09:49:59;;;;;;;7.63;4.00;;;;;;;28.07;57.56;101991.72;5085723;28;20144;-79
2022/08/24 09:52:53;;;;;;;9.82;4.47;;;;;;;27.68;58.97;101985.00;5108743;28;20444;-79
2022/08/24 09:55:42;;;;;;;8.85;5.53;;;;;;;27.31;59.38;101994.88;5085181;28;20046;-80
2022/08/24 09:58:17;;;;;;;9.07;5.00;;;;;;;27.25;59.83;101981.88;5103115;28;20034;-78
2022/08/24 10:00:51;;;;;;;7.00;5.32;;;;;;;27.00;60.17;101979.84;5091962;28;20077;-79
2022/08/24 10:03:37;;;;;;;9.27;5.13;;;;;;;27.03;61.06;101981.25;5118632;28;20356;-79
2022/08/24 10:06:15;;;;;;;7.15;5.93;;;;;;;26.92;60.88;101990.81;5109540;28;20032;-79
2022/08/24 10:08:43;;;;;;;7.63;4.88;;;;;;;27.36;60.41;101978.81;5095165;28;20091;-77
2022/08/24 10:11:29;;;;;;;9.27;5.72;;;;;;;27.43;59.70;101975.72;5109446;28;20027;-78
2022/08/24 10:14:01;;;;;;;8.88;4.70;;;;;;;27.45;60.49;101965.00;5105775;28;20118;-78
2022/08/24 10:16:32;;;;;;;9.88;6.03;;;;;;;27.50;59.84;101967.81;5106193;28;20031;-80
2022/08/24 10:19:17;;;;;;;15.10;5.78;;;;;;;27.93;58.51;101972.88;5090592;28;20072;-78
2022/08/24 10:22:11;;;;;;;10.52;5.80;;;;;;;28.49;57.26;101960.34;5106653;28;20074;-79
2022/08/24 10:25:17;;;;;;;8.88;4.85;;;;;;;28.93;56.12;101964.91;5090316;28;20039;-78
2022/08/24 10:27:50;;;;;;;10.32;5.35;;;;;;;29.68;52.48;101963.50;5108521;28;20119;-77
2022/08/24 10:30:47;;;;;;;13.80;6.03;;;;;;;29.55;51.85;101964.19;5106982;28;20081;-79
2022/08/24 10:33:18;;;;;;;5.13;2.67;;;;;;;29.71;48.09;101969.38;5103531;28;20050;-78
2022/08/24 10:35:56;;;;;;;9.48;4.10;;;;;;;29.43;51.04;101960.84;5106385;28;20024;-78
2022/08/24 10:41:42;;;;;;;2.92;2.30;;;;;;;29.55;49.15;101952.91;5096942;28;20057;-78
2022/08/24 10:44:36;;;;;;;5.18;2.25;;;;;;;30.02;50.03;101955.78;5098169;28;20043;-77
2022/08/24 10:47:04;;;;;;;2.42;1.50;;;;;;;30.35;47.25;101952.06;5103617;28;20399;-78
2022/08/24 10:49:36;;;;;;;4.32;2.22;;;;;;;30.48;46.14;101955.00;5101931;28;20023;-78
2022/08/24 10:52:23;;;;;;;2.10;1.90;;;;;;;30.44;45.17;101948.25;5085500;28;20526;-78
2022/08/24 10:54:49;;;;;;;2.97;1.70;;;;;;;30.42;44.60;101947.69;5101084;28;20455;-79
2022/08/24 10:57:38;;;;;;;2.15;1.75;;;;;;;30.36;45.42;101945.25;5108885;28;20116;-78
2022/08/24 11:00:04;;;;;;;2.63;1.88;;;;;;;30.44;46.39;101945.41;5108803;28;20352;-78
2022/08/24 11:02:36;;;;;;;6.20;2.20;;;;;;;30.49;46.30;101939.69;5113694;28;20079;-78
2022/08/24 11:05:14;;;;;;;5.47;1.70;;;;;;;30.79;47.24;101939.28;5095220;28;20023;-79
2022/08/24 11:07:59;;;;;;;5.65;3.10;;;;;;;30.82;46.60;101940.66;5100644;28;20024;-78
2022/08/24 11:10:35;;;;;;;3.30;2.00;;;;;;;30.71;46.82;101939.13;5104781;28;20588;-78
2022/08/24 11:13:21;;;;;;;5.23;2.13;;;;;;;30.98;45.66;101939.28;5090297;28;20019;-81
2022/08/24 11:15:56;;;;;;;5.50;1.93;;;;;;;31.05;45.75;101932.09;5093743;28;20032;-78
2022/08/24 11:18:22;;;;;;;3.28;1.83;;;;;;;30.75;44.75;101934.53;5102310;28;20279;-79
2022/08/24 11:20:48;;;;;;;;;;;;;;;31.14;44.54;101927.41;5090798;28;20100;-79
2022/08/24 11:23:14;;;;;;;2.42;1.77;;;;;;;31.20;43.78;101936.72;5088644;28;19919;-79
2022/08/24 11:25:44;;;;;;;;;;;;;;;31.53;43.51;101921.41;5086978;28;20093;-80
2022/08/24 11:28:27;;;;;;;2.42;1.90;;;;;;;31.40;44.31;101922.19;5083660;28;19922;-79
2022/08/24 11:30:52;;;;;;;1.90;1.50;;;;;;;31.09;43.06;101932.31;5103758;28;20102;-79
2022/08/24 11:33:43;;;;;;;;;;;;;;;30.80;44.96;101931.66;5088626;28;20127;-79
2022/08/24 11:36:15;;;;;;;3.17;1.38;;;;;;;31.24;43.62;101934.94;5087270;28;19919;-79
2022/08/24 11:38:41;;;;;;;3.22;1.85;;;;;;;31.33;42.58;101935.94;5087320;28;20398;-78
2022/08/24 11:41:11;;;;;;;;;;;;;;;31.60;43.12;101930.34;5089536;28;20027;-79
2022/08/24 11:44:08;;;;;;;4.97;1.23;;;;;;;31.47;42.10;101928.31;5107782;28;19916;-82
2022/08/24 11:46:40;;;;;;;2.78;1.55;;;;;;;31.80;42.52;101930.00;5094205;28;20208;-82
2022/08/24 11:49:20;;;;;;;2.25;1.55;;;;;;;31.74;41.54;101925.59;5105961;28;20095;-81